createdAt,value
2019-03-25T00:01:00.078Z,20.70
2019-03-25T00:03:29.066Z,21.20
2019-03-25T00:05:58.086Z,19.73
2019-03-25T00:08:27.193Z,20.20
2019-03-25T00:10:56.606Z,20.07
2019-03-25T00:13:25.612Z,20.20
2019-03-25T00:15:56.402Z,19.40
2019-03-25T00:18:25.636Z,18.63
2019-03-25T00:20:54.729Z,19.63
2019-03-25T00:23:23.808Z,20.20
2019-03-25T00:25:52.932Z,18.03
2019-03-25T00:28:22.092Z,19.83
2019-03-25T00:30:51.298Z,20.03
2019-03-25T00:33:20.191Z,19.90
2019-03-25T00:35:49.282Z,20.10
2019-03-25T00:38:18.208Z,20.00
2019-03-25T00:40:47.186Z,19.83
2019-03-25T00:43:16.311Z,20.20
2019-03-25T00:45:45.202Z,20.47
2019-03-25T00:48:14.144Z,19.27
2019-03-25T00:50:43.258Z,20.87
2019-03-25T00:53:12.325Z,21.17
2019-03-25T00:55:41.427Z,21.03
2019-03-25T00:58:10.536Z,20.40
2019-03-25T01:00:39.612Z,20.77
2019-03-25T01:03:08.934Z,21.57
2019-03-25T01:05:37.870Z,21.03
2019-03-25T01:08:07.042Z,21.47
2019-03-25T01:10:36.360Z,22.30
2019-03-25T01:13:05.467Z,20.80
2019-03-25T01:15:34.492Z,21.13
2019-03-25T01:18:03.516Z,20.97
2019-03-25T01:20:32.488Z,21.57
2019-03-25T01:23:01.416Z,21.20
2019-03-25T01:25:30.404Z,21.87
2019-03-25T01:27:59.719Z,22.53
2019-03-25T01:30:28.712Z,22.10
2019-03-25T01:32:57.802Z,22.03
2019-03-25T01:35:26.694Z,21.83
2019-03-25T01:37:55.649Z,21.43
2019-03-25T01:40:24.605Z,21.87
2019-03-25T01:42:53.627Z,21.40
2019-03-25T01:45:22.669Z,20.80
2019-03-25T01:47:51.872Z,20.93
2019-03-25T01:50:20.863Z,21.70
2019-03-25T01:52:49.734Z,21.77
2019-03-25T01:55:18.656Z,21.90
2019-03-25T01:57:47.724Z,21.13
2019-03-25T02:00:16.706Z,21.37
2019-03-25T02:02:45.774Z,21.70
2019-03-25T02:05:14.869Z,22.63
2019-03-25T02:07:43.999Z,22.90
2019-03-25T02:10:13.036Z,21.90
2019-03-25T02:12:42.147Z,21.67
2019-03-25T02:15:11.372Z,21.03
2019-03-25T02:17:40.347Z,21.90
2019-03-25T02:20:09.282Z,20.97
2019-03-25T02:22:38.456Z,20.30
2019-03-25T02:25:07.618Z,21.87
2019-03-25T02:27:36.731Z,21.67
2019-03-25T02:30:06.047Z,21.53
2019-03-25T02:32:34.975Z,21.60
2019-03-25T02:35:03.921Z,20.87
2019-03-25T02:37:33.116Z,21.67
2019-03-25T02:40:02.204Z,21.63
2019-03-25T02:42:31.136Z,21.73
2019-03-25T02:45:00.535Z,22.77
2019-03-25T02:47:29.787Z,22.10
2019-03-25T02:49:58.799Z,21.13
2019-03-25T02:52:28.202Z,21.73
2019-03-25T02:54:57.212Z,22.23
2019-03-25T02:57:26.174Z,22.67
2019-03-25T02:59:55.206Z,22.53
2019-03-25T03:02:24.408Z,21.37
2019-03-25T03:04:53.564Z,21.67
2019-03-25T03:07:22.684Z,23.03
2019-03-25T03:09:51.651Z,21.40
2019-03-25T03:12:20.599Z,23.43
2019-03-25T03:14:49.570Z,23.37
2019-03-25T03:17:18.503Z,23.03
2019-03-25T03:19:47.508Z,23.80
2019-03-25T03:22:16.661Z,22.70
2019-03-25T03:24:45.669Z,23.93
2019-03-25T03:27:14.805Z,23.50
2019-03-25T03:29:43.870Z,23.47
2019-03-25T03:32:12.941Z,24.87
2019-03-25T03:34:42.026Z,24.13
2019-03-25T03:37:11.204Z,24.33
2019-03-25T03:39:40.062Z,23.23
2019-03-25T03:42:09.389Z,23.10
2019-03-25T03:44:38.299Z,23.77
2019-03-25T03:47:07.259Z,23.10
2019-03-25T03:49:36.202Z,22.63
2019-03-25T03:52:05.682Z,22.13
2019-03-25T03:54:34.763Z,21.53
2019-03-25T03:57:03.829Z,21.60
2019-03-25T03:59:32.784Z,22.37
2019-03-25T04:02:01.748Z,21.83
2019-03-25T04:04:30.787Z,21.83
2019-03-25T04:06:59.871Z,22.70
2019-03-25T04:09:29.015Z,22.80
2019-03-25T04:11:58.186Z,22.53
2019-03-25T04:14:27.206Z,22.20
2019-03-25T04:16:56.142Z,23.57
2019-03-25T04:19:25.359Z,22.53
2019-03-25T04:21:54.489Z,22.00
2019-03-25T04:24:23.407Z,21.10
2019-03-25T04:26:52.529Z,23.10
2019-03-25T04:29:21.586Z,22.73
2019-03-25T04:31:50.611Z,22.20
2019-03-25T04:34:19.649Z,21.97
2019-03-25T04:36:48.587Z,21.40
2019-03-25T04:39:17.536Z,21.77
2019-03-25T04:41:46.663Z,21.33
2019-03-25T04:44:15.738Z,20.10
2019-03-25T04:46:44.769Z,20.70
2019-03-25T04:49:13.932Z,22.47
2019-03-25T04:51:44.839Z,20.87
2019-03-25T04:54:14.263Z,21.63
2019-03-25T04:56:43.783Z,22.60
2019-03-25T04:59:12.695Z,22.27
2019-03-25T05:01:41.683Z,21.53
2019-03-25T05:04:10.687Z,20.73
2019-03-25T05:06:39.841Z,21.83
2019-03-25T05:09:08.721Z,22.23
2019-03-25T05:11:37.790Z,21.27
2019-03-25T05:14:06.823Z,21.40
2019-03-25T05:16:35.705Z,22.50
2019-03-25T05:19:04.707Z,22.43
2019-03-25T05:21:33.955Z,21.63
2019-03-25T05:24:02.887Z,21.53
2019-03-25T05:26:32.006Z,22.00
2019-03-25T05:29:01.073Z,21.53
2019-03-25T05:31:29.930Z,21.17
2019-03-25T05:33:59.101Z,21.07
2019-03-25T05:36:28.104Z,21.57
2019-03-25T05:38:57.130Z,20.93
2019-03-25T05:41:26.070Z,21.57
2019-03-25T05:43:55.003Z,21.60
2019-03-25T05:46:24.271Z,22.37
2019-03-25T05:48:53.155Z,22.43
2019-03-25T05:51:22.064Z,21.30
2019-03-25T05:53:50.932Z,23.47
2019-03-25T05:56:19.905Z,23.63
2019-03-25T05:58:49.094Z,25.43
2019-03-25T06:01:18.431Z,23.67
2019-03-25T06:03:47.388Z,23.73
2019-03-25T06:06:16.685Z,22.60
2019-03-25T06:08:45.832Z,22.33
2019-03-25T06:11:14.949Z,23.10
2019-03-25T06:13:43.980Z,24.13
2019-03-25T06:16:13.085Z,21.33
2019-03-25T06:18:42.072Z,21.87
2019-03-25T06:21:11.037Z,22.77
2019-03-25T06:23:40.231Z,23.47
2019-03-25T06:26:09.240Z,23.80
2019-03-25T06:28:38.522Z,24.67
2019-03-25T06:31:07.706Z,24.47
2019-03-25T06:33:36.735Z,23.47
2019-03-25T06:36:05.824Z,23.23
2019-03-25T06:38:34.870Z,22.80
2019-03-25T06:41:03.925Z,24.63
2019-03-25T06:43:33.061Z,24.00
2019-03-25T06:46:02.298Z,22.70
2019-03-25T06:48:31.295Z,24.93
2019-03-25T06:51:00.332Z,23.43
2019-03-25T06:53:29.498Z,26.40
2019-03-25T06:55:58.605Z,24.23
2019-03-25T06:58:27.700Z,25.47
2019-03-25T07:00:56.758Z,22.50
2019-03-25T07:03:25.840Z,23.57
2019-03-25T07:05:54.920Z,24.27
2019-03-25T07:08:24.208Z,26.23
2019-03-25T07:10:53.318Z,22.67
2019-03-25T07:13:22.482Z,23.53
2019-03-25T07:15:51.536Z,29.93
2019-03-25T07:18:20.763Z,32.73
2019-03-25T07:20:49.773Z,35.10
2019-03-25T07:23:18.828Z,33.77
2019-03-25T07:25:48.042Z,32.80
2019-03-25T07:28:17.046Z,31.63
2019-03-25T07:30:46.242Z,31.43
2019-03-25T07:33:15.518Z,36.10
2019-03-25T07:35:44.732Z,33.60
2019-03-25T07:38:13.741Z,33.67
2019-03-25T07:40:42.918Z,34.17
2019-03-25T07:43:12.116Z,33.90
2019-03-25T07:45:41.077Z,34.57
2019-03-25T07:48:10.211Z,33.70
2019-03-25T07:50:39.512Z,33.50
2019-03-25T07:53:08.638Z,32.33
2019-03-25T07:55:37.660Z,31.47
2019-03-25T07:58:06.846Z,31.97
2019-03-25T08:00:36.141Z,31.53
2019-03-25T08:03:05.193Z,30.70
2019-03-25T08:05:34.290Z,28.57
2019-03-25T08:08:03.298Z,30.97
2019-03-25T08:10:35.861Z,29.93
2019-03-25T08:13:05.357Z,31.40
2019-03-25T08:15:34.604Z,32.00
2019-03-25T08:18:04.274Z,31.00
2019-03-25T08:20:33.454Z,29.57
2019-03-25T08:23:02.780Z,29.87
2019-03-25T08:25:31.719Z,31.00
2019-03-25T08:28:00.876Z,29.50
2019-03-25T08:30:30.370Z,30.00
2019-03-25T08:32:59.342Z,29.07
2019-03-25T08:35:28.554Z,28.57
2019-03-25T08:37:57.660Z,29.40
2019-03-25T08:40:26.629Z,28.13
2019-03-25T08:42:55.736Z,28.87
2019-03-25T08:45:24.960Z,28.30
2019-03-25T08:47:53.983Z,27.73
2019-03-25T08:50:23.124Z,26.70
2019-03-25T08:52:52.148Z,26.90
2019-03-25T08:55:21.104Z,28.03
2019-03-25T08:57:50.148Z,29.07
2019-03-25T09:00:19.219Z,28.17
2019-03-25T09:02:48.413Z,27.73
2019-03-25T09:05:17.619Z,28.53
2019-03-25T09:07:46.947Z,30.03
2019-03-25T09:10:16.245Z,29.23
2019-03-25T09:12:45.547Z,29.93
2019-03-25T09:15:14.881Z,29.00
2019-03-25T09:17:44.036Z,29.37
2019-03-25T09:20:13.439Z,29.47
2019-03-25T09:22:42.619Z,30.67
2019-03-25T09:25:12.373Z,29.97
2019-03-25T09:27:41.711Z,28.37
2019-03-25T09:30:11.070Z,30.90
2019-03-25T09:32:40.390Z,28.47
2019-03-25T09:35:10.110Z,28.33
2019-03-25T09:37:39.408Z,29.03
2019-03-25T09:40:09.166Z,26.13
2019-03-25T09:42:38.096Z,27.27
2019-03-25T09:45:08.036Z,26.97
2019-03-25T09:47:37.918Z,24.50
2019-03-25T09:50:07.955Z,25.03
2019-03-25T09:52:38.777Z,21.97
2019-03-25T09:55:09.066Z,24.70
2019-03-25T09:57:38.209Z,23.53
2019-03-25T10:00:08.936Z,22.57
2019-03-25T10:02:38.279Z,22.10
2019-03-25T10:05:09.172Z,20.73
2019-03-25T10:07:38.131Z,21.20
2019-03-25T10:10:08.058Z,20.97
2019-03-25T10:12:36.956Z,19.27
2019-03-25T10:15:06.404Z,19.53
2019-03-25T10:17:35.684Z,18.63
2019-03-25T10:20:05.971Z,18.47
2019-03-25T10:22:35.075Z,15.03
2019-03-25T10:25:04.354Z,13.93
2019-03-25T10:27:33.535Z,11.43
2019-03-25T10:30:02.883Z,12.30
2019-03-25T10:32:31.977Z,11.73
2019-03-25T10:35:01.236Z,13.07
2019-03-25T10:37:30.473Z,12.23
2019-03-25T10:39:59.432Z,13.10
2019-03-25T10:42:28.373Z,11.90
2019-03-25T10:44:57.435Z,9.80
2019-03-25T10:47:26.531Z,8.77
2019-03-25T10:49:55.652Z,9.37
2019-03-25T10:52:24.864Z,11.80
2019-03-25T10:54:53.737Z,11.67
2019-03-25T10:57:22.704Z,11.20
2019-03-25T10:59:51.656Z,6.83
2019-03-25T11:02:20.633Z,6.43
2019-03-25T11:04:49.776Z,5.50
2019-03-25T11:07:18.771Z,6.50
2019-03-25T11:09:48.006Z,5.00
2019-03-25T11:12:16.988Z,7.70
2019-03-25T11:14:45.998Z,7.90
2019-03-25T11:17:15.090Z,8.47
2019-03-25T11:19:44.413Z,8.17
2019-03-25T11:22:13.912Z,5.30
2019-03-25T11:24:42.976Z,5.27
2019-03-25T11:27:11.999Z,5.37
2019-03-25T11:29:41.110Z,5.37
2019-03-25T11:32:10.327Z,4.47
2019-03-25T11:34:39.340Z,5.33
2019-03-25T11:37:08.210Z,5.20
2019-03-25T11:39:37.117Z,4.40
2019-03-25T11:42:06.338Z,4.90
2019-03-25T11:44:35.498Z,5.10
2019-03-25T11:47:04.475Z,4.83
2019-03-25T11:49:33.559Z,4.53
2019-03-25T11:52:02.623Z,5.50
2019-03-25T11:54:31.929Z,5.00
2019-03-25T11:57:00.990Z,5.07
2019-03-25T11:59:29.956Z,5.60
2019-03-25T12:01:58.812Z,5.43
2019-03-25T12:04:27.862Z,5.30
2019-03-25T12:06:57.001Z,5.80
2019-03-25T12:09:26.047Z,5.50
2019-03-25T12:11:54.995Z,6.47
2019-03-25T12:14:24.309Z,5.67
2019-03-25T12:16:53.479Z,6.00
2019-03-25T12:19:22.751Z,5.33
2019-03-25T12:21:51.951Z,5.30
2019-03-25T12:24:20.967Z,5.47
2019-03-25T12:26:49.963Z,6.10
2019-03-25T12:29:29.334Z,5.47
2019-03-25T12:31:49.788Z,5.47
2019-03-25T12:34:19.062Z,5.73
2019-03-25T12:36:48.161Z,5.77
2019-03-25T12:39:17.135Z,5.33
2019-03-25T12:41:46.113Z,5.47
2019-03-25T12:44:15.416Z,5.00
2019-03-25T12:46:44.505Z,5.00
2019-03-25T12:49:13.621Z,4.23
2019-03-25T12:51:42.549Z,5.10
2019-03-25T12:54:11.557Z,4.43
2019-03-25T12:56:40.437Z,4.77
2019-03-25T12:59:09.609Z,5.17
2019-03-25T13:01:38.567Z,5.13
2019-03-25T13:04:07.463Z,4.93
2019-03-25T13:06:36.423Z,4.63
2019-03-25T13:09:06.866Z,5.07
2019-03-25T13:11:35.834Z,4.60
2019-03-25T13:14:04.838Z,4.93
2019-03-25T13:16:33.855Z,4.83
2019-03-25T13:19:02.877Z,4.20
2019-03-25T13:21:31.807Z,4.17
2019-03-25T13:24:00.749Z,3.70
2019-03-25T13:26:30.084Z,4.40
2019-03-25T13:29:02.385Z,4.00
2019-03-25T13:31:30.178Z,3.90
2019-03-25T13:33:59.369Z,4.23
2019-03-25T13:36:28.533Z,3.30
2019-03-25T13:38:58.028Z,3.37
2019-03-25T13:41:27.181Z,3.40
2019-03-25T13:43:56.238Z,3.20
2019-03-25T13:46:25.445Z,3.23
2019-03-25T13:48:55.171Z,3.00
2019-03-25T13:51:24.291Z,2.10
2019-03-25T13:53:53.364Z,2.20
2019-03-25T13:56:22.746Z,2.10
2019-03-25T13:58:51.747Z,1.63
2019-03-25T14:01:20.727Z,1.70
2019-03-25T14:03:50.006Z,1.87
2019-03-25T14:06:19.141Z,1.83
2019-03-25T14:08:48.275Z,1.90
2019-03-25T14:11:17.567Z,1.90
2019-03-25T14:13:49.514Z,1.80
2019-03-25T14:16:17.938Z,2.20
2019-03-25T14:18:46.884Z,1.77
2019-03-25T14:21:15.740Z,1.57
2019-03-25T14:23:44.859Z,1.87
2019-03-25T14:26:13.890Z,1.70
2019-03-25T14:28:43.132Z,1.90
2019-03-25T14:31:12.060Z,2.20
2019-03-25T14:33:41.144Z,1.60
2019-03-25T14:36:10.090Z,1.60
2019-03-25T14:38:39.214Z,1.70
2019-03-25T14:41:08.285Z,1.40
2019-03-25T14:43:37.178Z,1.63
2019-03-25T14:46:06.294Z,1.60
2019-03-25T14:48:35.318Z,1.60
2019-03-25T14:51:04.224Z,1.60
2019-03-25T14:53:33.476Z,1.50
2019-03-25T14:56:02.619Z,1.50
2019-03-25T14:58:31.940Z,1.40
2019-03-25T15:01:01.278Z,1.13
2019-03-25T15:03:30.331Z,1.27
2019-03-25T15:05:59.540Z,1.07
2019-03-25T15:08:28.482Z,1.30
2019-03-25T15:10:57.326Z,1.43
2019-03-25T15:13:26.210Z,1.40
2019-03-25T15:15:55.725Z,1.50
2019-03-25T15:18:24.641Z,1.43
2019-03-25T15:20:53.536Z,1.57
2019-03-25T15:23:22.538Z,1.40
2019-03-25T15:25:51.525Z,1.20
2019-03-25T15:28:20.562Z,1.20
2019-03-25T15:30:49.582Z,1.50
2019-03-25T15:33:18.695Z,1.43
2019-03-25T15:35:47.534Z,1.23
2019-03-25T15:38:16.388Z,1.30
2019-03-25T15:40:45.290Z,1.53
2019-03-25T15:43:14.332Z,1.30
2019-03-25T15:45:43.237Z,1.60
2019-03-25T15:48:12.419Z,1.40
2019-03-25T15:50:41.497Z,1.40
2019-03-25T15:53:10.655Z,1.20
2019-03-25T15:55:39.920Z,1.50
2019-03-25T15:58:08.839Z,1.63
2019-03-25T16:00:46.994Z,1.23
2019-03-25T16:03:08.556Z,1.70
2019-03-25T16:05:37.463Z,1.30
2019-03-25T16:08:06.345Z,1.60
2019-03-25T16:10:35.498Z,1.20
2019-03-25T16:13:04.947Z,1.70
2019-03-25T16:15:41.653Z,1.90
2019-03-25T16:18:12.087Z,1.57
2019-03-25T16:20:41.394Z,1.70
2019-03-25T16:23:10.312Z,1.83
2019-03-25T16:25:39.310Z,1.80
2019-03-25T16:28:08.234Z,1.43
2019-03-25T16:30:37.477Z,1.50
2019-03-25T16:33:06.572Z,1.40
2019-03-25T16:35:35.625Z,1.83
2019-03-25T16:38:04.493Z,1.80
2019-03-25T16:40:33.491Z,1.70
2019-03-25T16:43:02.532Z,1.53
2019-03-25T16:45:31.383Z,1.70
2019-03-25T16:48:00.420Z,1.40
2019-03-25T16:50:29.697Z,1.43
2019-03-25T16:52:58.633Z,1.60
2019-03-25T16:55:27.591Z,1.70
2019-03-25T16:57:56.422Z,1.70
2019-03-25T17:00:27.488Z,1.63
2019-03-25T17:02:56.179Z,1.60
2019-03-25T17:05:25.123Z,1.60
2019-03-25T17:07:54.184Z,1.73
2019-03-25T17:10:23.236Z,1.93
2019-03-25T17:12:52.398Z,1.70
2019-03-25T17:15:21.345Z,1.73
2019-03-25T17:17:50.483Z,1.90
2019-03-25T17:20:19.484Z,2.23
2019-03-25T17:22:48.627Z,2.83
2019-03-25T17:25:17.736Z,1.87
2019-03-25T17:27:46.663Z,1.97
2019-03-25T17:30:16.203Z,1.70
2019-03-25T17:32:45.180Z,1.60
2019-03-25T17:35:14.260Z,2.00
2019-03-25T17:37:43.199Z,1.73
2019-03-25T17:40:12.501Z,2.00
2019-03-25T17:42:41.536Z,2.10
2019-03-25T17:45:10.682Z,2.13
2019-03-25T17:47:39.648Z,2.30
2019-03-25T17:50:09.144Z,2.10
2019-03-25T17:52:38.229Z,2.00
2019-03-25T17:55:07.432Z,2.53
2019-03-25T17:57:36.424Z,2.20
2019-03-25T18:00:06.881Z,2.00
2019-03-25T18:02:35.810Z,2.17
2019-03-25T18:05:05.849Z,2.27
2019-03-25T18:07:34.808Z,2.10
2019-03-25T18:10:04.178Z,2.00
2019-03-25T18:12:38.862Z,1.70
2019-03-25T18:15:04.384Z,2.00
2019-03-25T18:17:33.394Z,1.97
2019-03-25T18:20:02.392Z,2.10
2019-03-25T18:22:39.198Z,2.00
2019-03-25T18:25:02.160Z,2.10
2019-03-25T18:27:31.120Z,2.10
2019-03-25T18:30:00.327Z,2.10
2019-03-25T18:32:29.571Z,2.30
2019-03-25T18:34:58.582Z,2.50
2019-03-25T18:37:27.457Z,2.40
2019-03-25T18:39:56.403Z,2.53
2019-03-25T18:42:25.503Z,2.20
2019-03-25T18:44:54.552Z,2.13
2019-03-25T18:47:23.706Z,2.30
2019-03-25T18:49:52.960Z,2.80
2019-03-25T18:52:22.055Z,2.73
2019-03-25T18:54:51.154Z,2.00
2019-03-25T18:57:20.245Z,2.67
2019-03-25T18:59:49.134Z,2.80
2019-03-25T19:02:18.158Z,2.40
2019-03-25T19:04:47.272Z,2.63
2019-03-25T19:07:16.327Z,2.60
2019-03-25T19:09:45.642Z,2.53
2019-03-25T19:12:14.601Z,2.90
2019-03-25T19:14:43.701Z,2.70
2019-03-25T19:17:12.947Z,3.20
2019-03-25T19:19:41.899Z,2.80
2019-03-25T19:22:12.701Z,2.67
2019-03-25T19:24:41.756Z,3.23
2019-03-25T19:27:10.615Z,3.10
2019-03-25T19:29:39.507Z,2.83
2019-03-25T19:32:08.513Z,2.43
2019-03-25T19:34:39.456Z,2.50
2019-03-25T19:37:08.497Z,2.60
2019-03-25T19:39:37.623Z,2.87
2019-03-25T19:42:06.623Z,2.60
2019-03-25T19:44:37.385Z,3.03
2019-03-25T19:47:06.368Z,3.00
2019-03-25T19:49:35.290Z,3.47
2019-03-25T19:52:04.643Z,2.90
2019-03-25T19:54:35.418Z,2.60
2019-03-25T19:57:04.417Z,3.03
2019-03-25T19:59:33.526Z,2.50
2019-03-25T20:02:02.701Z,2.87
2019-03-25T20:04:33.691Z,3.10
2019-03-25T20:07:02.712Z,2.57
2019-03-25T20:09:31.905Z,2.77
2019-03-25T20:12:01.085Z,2.77
2019-03-25T20:14:31.793Z,2.70
2019-03-25T20:17:01.349Z,2.67
2019-03-25T20:19:30.433Z,2.60
2019-03-25T20:21:59.521Z,3.07
2019-03-25T20:24:30.264Z,2.60
2019-03-25T20:26:59.339Z,2.60
2019-03-25T20:29:28.226Z,2.50
2019-03-25T20:31:57.143Z,2.57
2019-03-25T20:34:26.187Z,2.40
2019-03-25T20:36:55.277Z,2.43
2019-03-25T20:39:24.127Z,2.00
2019-03-25T20:41:53.117Z,2.00
2019-03-25T20:44:22.336Z,2.20
2019-03-25T20:46:51.394Z,2.03
2019-03-25T20:49:20.721Z,1.93
2019-03-25T20:51:50.008Z,1.87
2019-03-25T20:54:19.179Z,1.90
2019-03-25T20:56:48.196Z,1.70
2019-03-25T20:59:17.303Z,2.30
2019-03-25T21:01:46.144Z,1.93
2019-03-25T21:04:15.155Z,2.13
2019-03-25T21:06:44.181Z,1.60
2019-03-25T21:09:13.162Z,2.03
2019-03-25T21:11:42.195Z,2.20
2019-03-25T21:14:11.169Z,2.40
2019-03-25T21:16:40.327Z,1.90
2019-03-25T21:19:09.375Z,2.07
2019-03-25T21:21:38.286Z,1.70
2019-03-25T21:24:07.238Z,1.40
2019-03-25T21:26:38.317Z,1.73
2019-03-25T21:29:07.386Z,1.83
2019-03-25T21:31:39.025Z,1.80
2019-03-25T22:40:59.079Z,1.77
2019-03-25T22:43:28.116Z,2.00
2019-03-25T22:45:57.204Z,1.87
2019-03-25T22:48:26.157Z,1.77
2019-03-25T22:50:55.187Z,1.97
2019-03-25T22:53:24.339Z,2.07
2019-03-25T22:55:53.453Z,2.17
2019-03-25T22:58:22.407Z,2.00
2019-03-25T23:00:51.887Z,1.97
